sensor_id;sensor_type;location;lat;lon;timestamp;P1;durP1;ratioP1;P2;durP2;ratioP2
69894;SDS011;57172;52.034;5.090;2022-09-21T00:01:18;6.23;;;2.60;;
69894;SDS011;57172;52.034;5.090;2022-09-21T00:03:50;5.03;;;2.58;;
69894;SDS011;57172;52.034;5.090;2022-09-21T00:06:21;7.30;;;2.60;;
69894;SDS011;57172;52.034;5.090;2022-09-21T00:08:49;7.03;;;2.45;;
69894;SDS011;57172;52.034;5.090;2022-09-21T00:11:18;6.65;;;2.53;;
69894;SDS011;57172;52.034;5.090;2022-09-21T00:13:47;4.70;;;2.30;;
69894;SDS011;57172;52.034;5.090;2022-09-21T00:16:17;4.82;;;2.38;;
69894;SDS011;57172;52.034;5.090;2022-09-21T00:18:44;7.15;;;2.70;;
69894;SDS011;57172;52.034;5.090;2022-09-21T00:21:12;6.43;;;2.80;;
69894;SDS011;57172;52.034;5.090;2022-09-21T00:23:40;6.57;;;2.60;;
69894;SDS011;57172;52.034;5.090;2022-09-21T00:26:09;8.00;;;2.70;;
69894;SDS011;57172;52.034;5.090;2022-09-21T00:28:36;7.13;;;2.45;;
69894;SDS011;57172;52.034;5.090;2022-09-21T00:31:04;6.47;;;2.80;;
69894;SDS011;57172;52.034;5.090;2022-09-21T00:33:33;4.68;;;2.40;;
69894;SDS011;57172;52.034;5.090;2022-09-21T00:36:01;6.90;;;2.90;;
69894;SDS011;57172;52.034;5.090;2022-09-21T00:38:29;6.30;;;2.50;;
69894;SDS011;57172;52.034;5.090;2022-09-21T00:40:57;8.55;;;2.85;;
69894;SDS011;57172;52.034;5.090;2022-09-21T00:43:24;8.13;;;2.50;;
69894;SDS011;57172;52.034;5.090;2022-09-21T00:45:53;6.10;;;2.50;;
69894;SDS011;57172;52.034;5.090;2022-09-21T00:48:27;7.35;;;2.60;;
69894;SDS011;57172;52.034;5.090;2022-09-21T00:50:55;7.10;;;3.10;;
69894;SDS011;57172;52.034;5.090;2022-09-21T00:53:24;5.03;;;2.90;;
69894;SDS011;57172;52.034;5.090;2022-09-21T00:55:53;9.23;;;3.47;;
69894;SDS011;57172;52.034;5.090;2022-09-21T00:58:25;6.82;;;2.80;;
69894;SDS011;57172;52.034;5.090;2022-09-21T01:00:55;7.10;;;3.03;;
69894;SDS011;57172;52.034;5.090;2022-09-21T01:03:25;8.27;;;2.90;;
69894;SDS011;57172;52.034;5.090;2022-09-21T01:05:53;5.78;;;2.80;;
69894;SDS011;57172;52.034;5.090;2022-09-21T01:08:20;9.48;;;2.95;;
69894;SDS011;57172;52.034;5.090;2022-09-21T01:20:38;7.75;;;2.75;;
69894;SDS011;57172;52.034;5.090;2022-09-21T01:30:46;6.23;;;2.90;;
69894;SDS011;57172;52.034;5.090;2022-09-21T01:33:17;9.07;;;2.95;;
69894;SDS011;57172;52.034;5.090;2022-09-21T01:35:53;4.82;;;2.90;;
69894;SDS011;57172;52.034;5.090;2022-09-21T01:38:37;7.68;;;2.75;;
69894;SDS011;57172;52.034;5.090;2022-09-21T01:41:18;6.05;;;2.50;;
69894;SDS011;57172;52.034;5.090;2022-09-21T01:43:50;5.10;;;2.70;;
69894;SDS011;57172;52.034;5.090;2022-09-21T01:46:21;6.47;;;2.70;;
69894;SDS011;57172;52.034;5.090;2022-09-21T01:48:53;6.40;;;2.80;;
69894;SDS011;57172;52.034;5.090;2022-09-21T01:51:25;6.70;;;2.60;;
69894;SDS011;57172;52.034;5.090;2022-09-21T01:53:55;7.57;;;2.55;;
69894;SDS011;57172;52.034;5.090;2022-09-21T01:56:29;7.27;;;2.70;;
69894;SDS011;57172;52.034;5.090;2022-09-21T02:01:59;6.40;;;2.85;;
69894;SDS011;57172;52.034;5.090;2022-09-21T02:04:36;5.80;;;2.70;;
69894;SDS011;57172;52.034;5.090;2022-09-21T02:07:05;5.85;;;2.53;;
69894;SDS011;57172;52.034;5.090;2022-09-21T02:09:33;7.17;;;2.70;;
69894;SDS011;57172;52.034;5.090;2022-09-21T02:12:02;4.85;;;2.40;;
69894;SDS011;57172;52.034;5.090;2022-09-21T02:14:30;7.75;;;2.58;;
69894;SDS011;57172;52.034;5.090;2022-09-21T02:19:46;5.93;;;2.70;;
69894;SDS011;57172;52.034;5.090;2022-09-21T02:24:54;6.28;;;2.55;;
69894;SDS011;57172;52.034;5.090;2022-09-21T02:30:19;6.38;;;2.80;;
69894;SDS011;57172;52.034;5.090;2022-09-21T02:38:30;5.72;;;2.60;;
69894;SDS011;57172;52.034;5.090;2022-09-21T02:43:44;6.53;;;2.45;;
69894;SDS011;57172;52.034;5.090;2022-09-21T02:48:53;4.37;;;2.30;;
69894;SDS011;57172;52.034;5.090;2022-09-21T02:51:25;6.47;;;2.80;;
69894;SDS011;57172;52.034;5.090;2022-09-21T02:53:56;9.68;;;2.97;;
69894;SDS011;57172;52.034;5.090;2022-09-21T02:56:26;11.82;;;2.78;;
69894;SDS011;57172;52.034;5.090;2022-09-21T02:58:54;5.40;;;2.63;;
69894;SDS011;57172;52.034;5.090;2022-09-21T03:01:24;5.30;;;2.60;;
69894;SDS011;57172;52.034;5.090;2022-09-21T03:03:53;5.30;;;2.67;;
69894;SDS011;57172;52.034;5.090;2022-09-21T03:06:20;5.20;;;2.50;;
69894;SDS011;57172;52.034;5.090;2022-09-21T03:08:46;7.07;;;2.80;;
69894;SDS011;57172;52.034;5.090;2022-09-21T03:11:17;4.53;;;2.47;;
69894;SDS011;57172;52.034;5.090;2022-09-21T03:13:45;4.63;;;2.70;;
69894;SDS011;57172;52.034;5.090;2022-09-21T03:16:12;6.90;;;2.70;;
69894;SDS011;57172;52.034;5.090;2022-09-21T03:18:39;5.60;;;2.75;;
69894;SDS011;57172;52.034;5.090;2022-09-21T03:21:08;5.80;;;2.70;;
69894;SDS011;57172;52.034;5.090;2022-09-21T03:23:39;5.90;;;2.40;;
69894;SDS011;57172;52.034;5.090;2022-09-21T03:26:06;8.63;;;2.97;;
69894;SDS011;57172;52.034;5.090;2022-09-21T03:28:33;5.32;;;2.80;;
69894;SDS011;57172;52.034;5.090;2022-09-21T03:31:00;4.68;;;2.67;;
69894;SDS011;57172;52.034;5.090;2022-09-21T03:33:27;5.13;;;2.60;;
69894;SDS011;57172;52.034;5.090;2022-09-21T03:35:54;4.85;;;2.63;;
69894;SDS011;57172;52.034;5.090;2022-09-21T03:38:21;5.87;;;2.50;;
69894;SDS011;57172;52.034;5.090;2022-09-21T03:40:48;8.13;;;2.65;;
69894;SDS011;57172;52.034;5.090;2022-09-21T03:43:16;7.55;;;3.05;;
69894;SDS011;57172;52.034;5.090;2022-09-21T03:45:43;6.03;;;2.72;;
69894;SDS011;57172;52.034;5.090;2022-09-21T03:48:10;9.23;;;2.90;;
69894;SDS011;57172;52.034;5.090;2022-09-21T03:50:38;7.00;;;2.80;;
69894;SDS011;57172;52.034;5.090;2022-09-21T03:53:05;5.95;;;2.80;;
69894;SDS011;57172;52.034;5.090;2022-09-21T03:55:32;6.53;;;3.03;;
69894;SDS011;57172;52.034;5.090;2022-09-21T03:57:59;6.60;;;2.72;;
69894;SDS011;57172;52.034;5.090;2022-09-21T04:00:27;5.38;;;2.95;;
69894;SDS011;57172;52.034;5.090;2022-09-21T04:02:54;6.63;;;2.80;;
69894;SDS011;57172;52.034;5.090;2022-09-21T04:05:21;6.53;;;2.58;;
69894;SDS011;57172;52.034;5.090;2022-09-21T04:07:48;6.38;;;2.80;;
69894;SDS011;57172;52.034;5.090;2022-09-21T04:10:17;5.43;;;2.55;;
69894;SDS011;57172;52.034;5.090;2022-09-21T04:12:45;4.03;;;2.50;;
69894;SDS011;57172;52.034;5.090;2022-09-21T04:15:13;5.17;;;2.60;;
69894;SDS011;57172;52.034;5.090;2022-09-21T04:17:43;6.75;;;2.50;;
69894;SDS011;57172;52.034;5.090;2022-09-21T04:20:10;5.70;;;2.80;;
69894;SDS011;57172;52.034;5.090;2022-09-21T04:22:37;5.30;;;2.58;;
69894;SDS011;57172;52.034;5.090;2022-09-21T04:25:08;6.10;;;2.47;;
69894;SDS011;57172;52.034;5.090;2022-09-21T04:27:36;5.87;;;2.87;;
69894;SDS011;57172;52.034;5.090;2022-09-21T04:30:03;6.30;;;2.50;;
69894;SDS011;57172;52.034;5.090;2022-09-21T04:32:31;5.18;;;2.40;;
69894;SDS011;57172;52.034;5.090;2022-09-21T04:34:58;7.50;;;2.75;;
69894;SDS011;57172;52.034;5.090;2022-09-21T04:37:25;6.82;;;3.10;;
69894;SDS011;57172;52.034;5.090;2022-09-21T04:39:52;6.03;;;2.80;;
69894;SDS011;57172;52.034;5.090;2022-09-21T04:42:19;6.43;;;2.50;;
69894;SDS011;57172;52.034;5.090;2022-09-21T04:44:45;7.97;;;3.03;;
69894;SDS011;57172;52.034;5.090;2022-09-21T04:47:12;7.00;;;2.80;;
69894;SDS011;57172;52.034;5.090;2022-09-21T04:49:39;7.53;;;2.80;;
69894;SDS011;57172;52.034;5.090;2022-09-21T04:52:06;6.50;;;2.80;;
69894;SDS011;57172;52.034;5.090;2022-09-21T04:54:33;6.78;;;3.08;;
69894;SDS011;57172;52.034;5.090;2022-09-21T04:57:00;6.20;;;2.90;;
69894;SDS011;57172;52.034;5.090;2022-09-21T04:59:27;5.72;;;2.80;;
69894;SDS011;57172;52.034;5.090;2022-09-21T05:01:53;7.20;;;2.95;;
69894;SDS011;57172;52.034;5.090;2022-09-21T05:04:20;5.63;;;2.70;;
69894;SDS011;57172;52.034;5.090;2022-09-21T05:06:47;8.90;;;2.83;;
69894;SDS011;57172;52.034;5.090;2022-09-21T05:09:14;5.70;;;2.80;;
69894;SDS011;57172;52.034;5.090;2022-09-21T05:11:59;8.35;;;2.80;;
69894;SDS011;57172;52.034;5.090;2022-09-21T05:14:26;5.90;;;2.90;;
69894;SDS011;57172;52.034;5.090;2022-09-21T05:16:52;6.97;;;3.23;;
69894;SDS011;57172;52.034;5.090;2022-09-21T05:19:19;6.90;;;3.10;;
69894;SDS011;57172;52.034;5.090;2022-09-21T05:21:47;8.60;;;3.05;;
69894;SDS011;57172;52.034;5.090;2022-09-21T05:24:14;6.43;;;2.90;;
69894;SDS011;57172;52.034;5.090;2022-09-21T05:26:41;6.50;;;2.88;;
69894;SDS011;57172;52.034;5.090;2022-09-21T05:29:08;7.33;;;2.90;;
69894;SDS011;57172;52.034;5.090;2022-09-21T05:34:16;7.22;;;3.17;;
69894;SDS011;57172;52.034;5.090;2022-09-21T05:39:52;6.22;;;2.97;;
69894;SDS011;57172;52.034;5.090;2022-09-21T05:42:19;6.83;;;2.90;;
69894;SDS011;57172;52.034;5.090;2022-09-21T05:44:46;6.38;;;3.20;;
69894;SDS011;57172;52.034;5.090;2022-09-21T05:50:02;8.05;;;3.22;;
69894;SDS011;57172;52.034;5.090;2022-09-21T05:52:33;7.18;;;3.40;;
69894;SDS011;57172;52.034;5.090;2022-09-21T05:55:13;7.30;;;2.80;;
69894;SDS011;57172;52.034;5.090;2022-09-21T05:58:09;5.97;;;2.70;;
69894;SDS011;57172;52.034;5.090;2022-09-21T06:03:28;8.20;;;3.10;;
69894;SDS011;57172;52.034;5.090;2022-09-21T06:05:57;6.30;;;3.40;;
69894;SDS011;57172;52.034;5.090;2022-09-21T06:08:25;6.07;;;2.97;;
69894;SDS011;57172;52.034;5.090;2022-09-21T06:10:52;6.88;;;3.20;;
69894;SDS011;57172;52.034;5.090;2022-09-21T06:13:20;9.80;;;3.20;;
69894;SDS011;57172;52.034;5.090;2022-09-21T06:15:46;7.70;;;2.95;;
69894;SDS011;57172;52.034;5.090;2022-09-21T06:18:13;6.47;;;3.03;;
69894;SDS011;57172;52.034;5.090;2022-09-21T06:20:43;6.77;;;3.00;;
69894;SDS011;57172;52.034;5.090;2022-09-21T06:23:11;8.15;;;3.00;;
69894;SDS011;57172;52.034;5.090;2022-09-21T06:25:39;6.95;;;2.95;;
69894;SDS011;57172;52.034;5.090;2022-09-21T06:28:07;7.85;;;3.00;;
69894;SDS011;57172;52.034;5.090;2022-09-21T06:30:35;7.65;;;3.33;;
69894;SDS011;57172;52.034;5.090;2022-09-21T06:33:04;5.90;;;3.20;;
69894;SDS011;57172;52.034;5.090;2022-09-21T06:35:33;7.05;;;3.67;;
69894;SDS011;57172;52.034;5.090;2022-09-21T06:38:02;7.07;;;3.17;;
69894;SDS011;57172;52.034;5.090;2022-09-21T06:40:32;7.20;;;3.45;;
69894;SDS011;57172;52.034;5.090;2022-09-21T06:43:00;10.35;;;3.80;;
69894;SDS011;57172;52.034;5.090;2022-09-21T06:45:29;7.47;;;3.40;;
69894;SDS011;57172;52.034;5.090;2022-09-21T06:47:56;10.77;;;3.80;;
69894;SDS011;57172;52.034;5.090;2022-09-21T06:50:23;8.65;;;3.80;;
69894;SDS011;57172;52.034;5.090;2022-09-21T06:52:50;9.50;;;3.83;;
69894;SDS011;57172;52.034;5.090;2022-09-21T06:55:17;11.93;;;4.18;;
69894;SDS011;57172;52.034;5.090;2022-09-21T06:57:45;10.97;;;3.83;;
69894;SDS011;57172;52.034;5.090;2022-09-21T07:00:12;9.07;;;3.88;;
69894;SDS011;57172;52.034;5.090;2022-09-21T07:02:42;20.10;;;4.45;;
69894;SDS011;57172;52.034;5.090;2022-09-21T07:05:10;15.35;;;4.65;;
69894;SDS011;57172;52.034;5.090;2022-09-21T07:07:37;11.70;;;4.03;;
69894;SDS011;57172;52.034;5.090;2022-09-21T07:10:06;11.90;;;3.97;;
69894;SDS011;57172;52.034;5.090;2022-09-21T07:12:42;13.18;;;4.07;;
69894;SDS011;57172;52.034;5.090;2022-09-21T07:15:10;11.38;;;3.45;;
69894;SDS011;57172;52.034;5.090;2022-09-21T07:17:37;8.07;;;3.30;;
69894;SDS011;57172;52.034;5.090;2022-09-21T07:20:05;8.88;;;3.30;;
69894;SDS011;57172;52.034;5.090;2022-09-21T07:22:33;7.13;;;3.10;;
69894;SDS011;57172;52.034;5.090;2022-09-21T07:25:01;6.30;;;3.00;;
69894;SDS011;57172;52.034;5.090;2022-09-21T07:27:32;9.35;;;3.42;;
69894;SDS011;57172;52.034;5.090;2022-09-21T07:29:59;9.30;;;3.17;;
69894;SDS011;57172;52.034;5.090;2022-09-21T07:32:26;10.30;;;2.90;;
69894;SDS011;57172;52.034;5.090;2022-09-21T07:34:53;5.93;;;2.70;;
69894;SDS011;57172;52.034;5.090;2022-09-21T07:37:23;8.52;;;3.20;;
69894;SDS011;57172;52.034;5.090;2022-09-21T07:39:50;5.95;;;2.60;;
69894;SDS011;57172;52.034;5.090;2022-09-21T07:42:19;8.70;;;2.80;;
69894;SDS011;57172;52.034;5.090;2022-09-21T07:44:47;5.60;;;2.50;;
69894;SDS011;57172;52.034;5.090;2022-09-21T07:47:16;5.53;;;2.47;;
69894;SDS011;57172;52.034;5.090;2022-09-21T07:49:43;6.13;;;2.10;;
69894;SDS011;57172;52.034;5.090;2022-09-21T07:52:12;4.18;;;2.30;;
69894;SDS011;57172;52.034;5.090;2022-09-21T07:54:40;6.85;;;3.10;;
69894;SDS011;57172;52.034;5.090;2022-09-21T07:57:07;7.55;;;2.90;;
69894;SDS011;57172;52.034;5.090;2022-09-21T07:59:52;5.63;;;2.20;;
69894;SDS011;57172;52.034;5.090;2022-09-21T08:02:22;7.28;;;2.00;;
69894;SDS011;57172;52.034;5.090;2022-09-21T08:04:50;5.63;;;2.20;;
69894;SDS011;57172;52.034;5.090;2022-09-21T08:07:17;6.38;;;1.80;;
69894;SDS011;57172;52.034;5.090;2022-09-21T08:09:44;6.45;;;2.00;;
69894;SDS011;57172;52.034;5.090;2022-09-21T08:12:14;5.67;;;1.83;;
69894;SDS011;57172;52.034;5.090;2022-09-21T08:14:43;6.72;;;2.25;;
69894;SDS011;57172;52.034;5.090;2022-09-21T08:17:10;6.20;;;2.10;;
69894;SDS011;57172;52.034;5.090;2022-09-21T08:19:37;4.85;;;1.80;;
69894;SDS011;57172;52.034;5.090;2022-09-21T08:22:04;6.93;;;1.77;;
69894;SDS011;57172;52.034;5.090;2022-09-21T08:24:31;5.97;;;1.80;;
69894;SDS011;57172;52.034;5.090;2022-09-21T08:26:59;4.20;;;1.60;;
69894;SDS011;57172;52.034;5.090;2022-09-21T08:29:25;4.28;;;1.67;;
69894;SDS011;57172;52.034;5.090;2022-09-21T08:31:52;4.82;;;1.67;;
69894;SDS011;57172;52.034;5.090;2022-09-21T08:34:19;4.15;;;1.60;;
69894;SDS011;57172;52.034;5.090;2022-09-21T08:36:48;4.20;;;1.77;;
69894;SDS011;57172;52.034;5.090;2022-09-21T08:39:20;7.82;;;1.75;;
69894;SDS011;57172;52.034;5.090;2022-09-21T08:47:14;5.47;;;1.80;;
69894;SDS011;57172;52.034;5.090;2022-09-21T08:49:46;4.57;;;1.60;;
69894;SDS011;57172;52.034;5.090;2022-09-21T08:52:20;6.60;;;1.80;;
69894;SDS011;57172;52.034;5.090;2022-09-21T08:54:54;4.00;;;1.60;;
69894;SDS011;57172;52.034;5.090;2022-09-21T08:57:28;6.72;;;1.67;;
69894;SDS011;57172;52.034;5.090;2022-09-21T08:59:57;6.53;;;1.65;;
69894;SDS011;57172;52.034;5.090;2022-09-21T09:02:48;3.90;;;1.50;;
69894;SDS011;57172;52.034;5.090;2022-09-21T09:07:58;5.85;;;1.75;;
69894;SDS011;57172;52.034;5.090;2022-09-21T09:13:37;7.30;;;1.42;;
69894;SDS011;57172;52.034;5.090;2022-09-21T09:16:39;5.57;;;1.37;;
69894;SDS011;57172;52.034;5.090;2022-09-21T09:19:31;18.33;;;10.43;;
69894;SDS011;57172;52.034;5.090;2022-09-21T09:22:08;10.00;;;4.97;;
69894;SDS011;57172;52.034;5.090;2022-09-21T09:24:45;3.75;;;1.30;;
69894;SDS011;57172;52.034;5.090;2022-09-21T09:27:26;5.88;;;1.50;;
69894;SDS011;57172;52.034;5.090;2022-09-21T09:30:25;5.87;;;1.53;;
69894;SDS011;57172;52.034;5.090;2022-09-21T09:33:05;4.57;;;1.20;;
69894;SDS011;57172;52.034;5.090;2022-09-21T09:35:47;6.32;;;1.52;;
69894;SDS011;57172;52.034;5.090;2022-09-21T09:38:20;5.30;;;1.48;;
69894;SDS011;57172;52.034;5.090;2022-09-21T09:43:40;6.63;;;1.60;;
69894;SDS011;57172;52.034;5.090;2022-09-21T09:46:22;5.88;;;1.50;;
69894;SDS011;57172;52.034;5.090;2022-09-21T09:51:49;4.90;;;1.40;;
69894;SDS011;57172;52.034;5.090;2022-09-21T09:54:16;5.50;;;1.70;;
69894;SDS011;57172;52.034;5.090;2022-09-21T09:56:46;6.67;;;1.60;;
69894;SDS011;57172;52.034;5.090;2022-09-21T09:59:18;6.05;;;1.63;;
69894;SDS011;57172;52.034;5.090;2022-09-21T10:01:57;4.28;;;1.40;;
69894;SDS011;57172;52.034;5.090;2022-09-21T10:04:29;4.20;;;1.27;;
69894;SDS011;57172;52.034;5.090;2022-09-21T10:06:56;4.55;;;1.58;;
69894;SDS011;57172;52.034;5.090;2022-09-21T10:09:30;5.07;;;1.70;;
69894;SDS011;57172;52.034;5.090;2022-09-21T10:14:50;5.20;;;1.30;;
69894;SDS011;57172;52.034;5.090;2022-09-21T10:17:18;4.60;;;1.20;;
69894;SDS011;57172;52.034;5.090;2022-09-21T10:19:45;4.70;;;1.40;;
69894;SDS011;57172;52.034;5.090;2022-09-21T10:22:14;3.00;;;1.23;;
69894;SDS011;57172;52.034;5.090;2022-09-21T10:24:50;5.93;;;1.50;;
69894;SDS011;57172;52.034;5.090;2022-09-21T10:27:26;3.38;;;1.30;;
69894;SDS011;57172;52.034;5.090;2022-09-21T10:29:54;4.25;;;1.60;;
69894;SDS011;57172;52.034;5.090;2022-09-21T10:32:23;4.85;;;1.30;;
69894;SDS011;57172;52.034;5.090;2022-09-21T10:37:37;5.75;;;1.65;;
69894;SDS011;57172;52.034;5.090;2022-09-21T10:42:47;4.95;;;1.50;;
69894;SDS011;57172;52.034;5.090;2022-09-21T10:45:19;6.15;;;1.55;;
69894;SDS011;57172;52.034;5.090;2022-09-21T10:47:49;5.40;;;1.50;;
69894;SDS011;57172;52.034;5.090;2022-09-21T10:55:42;4.45;;;1.42;;
69894;SDS011;57172;52.034;5.090;2022-09-21T10:58:40;4.50;;;1.60;;
69894;SDS011;57172;52.034;5.090;2022-09-21T11:01:45;5.00;;;1.40;;
69894;SDS011;57172;52.034;5.090;2022-09-21T11:04:16;5.15;;;1.30;;
69894;SDS011;57172;52.034;5.090;2022-09-21T11:06:53;3.00;;;1.30;;
69894;SDS011;57172;52.034;5.090;2022-09-21T11:11:58;5.47;;;1.40;;
69894;SDS011;57172;52.034;5.090;2022-09-21T11:26:14;4.05;;;1.17;;
69894;SDS011;57172;52.034;5.090;2022-09-21T11:28:59;2.30;;;1.20;;
69894;SDS011;57172;52.034;5.090;2022-09-21T11:31:34;5.18;;;1.30;;
69894;SDS011;57172;52.034;5.090;2022-09-21T11:43:44;4.47;;;1.20;;
69894;SDS011;57172;52.034;5.090;2022-09-21T11:51:34;4.28;;;1.40;;
69894;SDS011;57172;52.034;5.090;2022-09-21T12:11:38;2.83;;;1.20;;
69894;SDS011;57172;52.034;5.090;2022-09-21T12:16:58;3.05;;;1.20;;
69894;SDS011;57172;52.034;5.090;2022-09-21T12:19:43;4.72;;;1.50;;
69894;SDS011;57172;52.034;5.090;2022-09-21T12:22:23;4.43;;;1.40;;
69894;SDS011;57172;52.034;5.090;2022-09-21T12:24:54;4.03;;;1.30;;
69894;SDS011;57172;52.034;5.090;2022-09-21T12:27:37;3.58;;;1.30;;
69894;SDS011;57172;52.034;5.090;2022-09-21T12:30:12;4.22;;;1.30;;
69894;SDS011;57172;52.034;5.090;2022-09-21T12:41:36;4.18;;;1.33;;
69894;SDS011;57172;52.034;5.090;2022-09-21T12:44:24;5.90;;;1.40;;
69894;SDS011;57172;52.034;5.090;2022-09-21T12:46:54;5.30;;;1.50;;
69894;SDS011;57172;52.034;5.090;2022-09-21T12:49:42;5.50;;;1.30;;
69894;SDS011;57172;52.034;5.090;2022-09-21T12:52:21;5.13;;;1.30;;
69894;SDS011;57172;52.034;5.090;2022-09-21T12:55:06;4.15;;;1.20;;
69894;SDS011;57172;52.034;5.090;2022-09-21T12:57:49;3.70;;;1.30;;
69894;SDS011;57172;52.034;5.090;2022-09-21T13:00:51;6.57;;;1.40;;
69894;SDS011;57172;52.034;5.090;2022-09-21T13:03:29;4.50;;;1.48;;
69894;SDS011;57172;52.034;5.090;2022-09-21T13:08:48;1.75;;;1.00;;
69894;SDS011;57172;52.034;5.090;2022-09-21T13:11:16;5.22;;;1.50;;
69894;SDS011;57172;52.034;5.090;2022-09-21T13:13:47;3.85;;;1.33;;
69894;SDS011;57172;52.034;5.090;2022-09-21T13:18:58;5.10;;;1.17;;
69894;SDS011;57172;52.034;5.090;2022-09-21T13:21:38;3.97;;;1.25;;
69894;SDS011;57172;52.034;5.090;2022-09-21T13:24:06;7.40;;;1.52;;
69894;SDS011;57172;52.034;5.090;2022-09-21T13:26:51;6.35;;;1.38;;
69894;SDS011;57172;52.034;5.090;2022-09-21T13:32:01;4.60;;;1.20;;
69894;SDS011;57172;52.034;5.090;2022-09-21T13:44:56;3.53;;;1.07;;
69894;SDS011;57172;52.034;5.090;2022-09-21T13:47:29;4.10;;;1.10;;
69894;SDS011;57172;52.034;5.090;2022-09-21T13:50:02;4.03;;;1.05;;
69894;SDS011;57172;52.034;5.090;2022-09-21T13:52:47;5.80;;;1.20;;
69894;SDS011;57172;52.034;5.090;2022-09-21T13:55:29;3.00;;;1.20;;
69894;SDS011;57172;52.034;5.090;2022-09-21T13:57:59;2.77;;;1.20;;
69894;SDS011;57172;52.034;5.090;2022-09-21T14:05:50;3.67;;;1.20;;
69894;SDS011;57172;52.034;5.090;2022-09-21T14:08:28;3.67;;;1.10;;
69894;SDS011;57172;52.034;5.090;2022-09-21T14:18:54;3.13;;;1.20;;
69894;SDS011;57172;52.034;5.090;2022-09-21T14:21:22;2.58;;;1.20;;
69894;SDS011;57172;52.034;5.090;2022-09-21T14:24:08;3.30;;;1.10;;
69894;SDS011;57172;52.034;5.090;2022-09-21T14:26:46;2.92;;;1.10;;
69894;SDS011;57172;52.034;5.090;2022-09-21T14:31:55;3.50;;;1.20;;
69894;SDS011;57172;52.034;5.090;2022-09-21T14:34:26;3.45;;;1.30;;
69894;SDS011;57172;52.034;5.090;2022-09-21T14:37:00;4.30;;;1.30;;
69894;SDS011;57172;52.034;5.090;2022-09-21T14:39:39;4.20;;;1.20;;
69894;SDS011;57172;52.034;5.090;2022-09-21T14:42:11;2.78;;;1.20;;
69894;SDS011;57172;52.034;5.090;2022-09-21T14:44:42;2.25;;;1.00;;
69894;SDS011;57172;52.034;5.090;2022-09-21T14:47:13;3.58;;;1.23;;
69894;SDS011;57172;52.034;5.090;2022-09-21T14:52:54;3.80;;;1.10;;
69894;SDS011;57172;52.034;5.090;2022-09-21T15:09:42;2.53;;;1.20;;
69894;SDS011;57172;52.034;5.090;2022-09-21T15:12:49;3.20;;;1.20;;
69894;SDS011;57172;52.034;5.090;2022-09-21T15:18:29;3.27;;;1.20;;
69894;SDS011;57172;52.034;5.090;2022-09-21T15:20:57;3.08;;;1.30;;
69894;SDS011;57172;52.034;5.090;2022-09-21T15:23:47;4.30;;;1.30;;
69894;SDS011;57172;52.034;5.090;2022-09-21T15:26:24;3.38;;;1.30;;
69894;SDS011;57172;52.034;5.090;2022-09-21T15:28:56;3.22;;;1.10;;
69894;SDS011;57172;52.034;5.090;2022-09-21T15:31:40;2.97;;;1.23;;
69894;SDS011;57172;52.034;5.090;2022-09-21T15:34:08;2.67;;;1.20;;
69894;SDS011;57172;52.034;5.090;2022-09-21T15:36:39;3.70;;;1.40;;
69894;SDS011;57172;52.034;5.090;2022-09-21T15:39:27;2.55;;;1.20;;
69894;SDS011;57172;52.034;5.090;2022-09-21T15:44:36;3.73;;;1.30;;
69894;SDS011;57172;52.034;5.090;2022-09-21T15:47:07;3.78;;;1.10;;
69894;SDS011;57172;52.034;5.090;2022-09-21T15:49:37;3.20;;;1.17;;
69894;SDS011;57172;52.034;5.090;2022-09-21T15:52:10;2.08;;;1.00;;
69894;SDS011;57172;52.034;5.090;2022-09-21T15:54:45;4.50;;;1.38;;
69894;SDS011;57172;52.034;5.090;2022-09-21T16:02:54;3.15;;;1.40;;
69894;SDS011;57172;52.034;5.090;2022-09-21T16:05:32;6.88;;;1.42;;
69894;SDS011;57172;52.034;5.090;2022-09-21T16:10:51;6.30;;;1.30;;
69894;SDS011;57172;52.034;5.090;2022-09-21T16:13:19;8.48;;;1.48;;
69894;SDS011;57172;52.034;5.090;2022-09-21T16:16:08;3.15;;;1.30;;
69894;SDS011;57172;52.034;5.090;2022-09-21T16:18:44;3.25;;;1.40;;
69894;SDS011;57172;52.034;5.090;2022-09-21T16:23:48;3.97;;;1.50;;
69894;SDS011;57172;52.034;5.090;2022-09-21T16:26:18;2.25;;;1.40;;
69894;SDS011;57172;52.034;5.090;2022-09-21T16:29:14;3.55;;;1.45;;
69894;SDS011;57172;52.034;5.090;2022-09-21T16:31:44;3.42;;;1.38;;
69894;SDS011;57172;52.034;5.090;2022-09-21T16:34:50;3.47;;;1.50;;
69894;SDS011;57172;52.034;5.090;2022-09-21T16:39:53;3.15;;;1.65;;
69894;SDS011;57172;52.034;5.090;2022-09-21T16:42:22;3.78;;;1.63;;
69894;SDS011;57172;52.034;5.090;2022-09-21T16:44:52;4.60;;;1.40;;
69894;SDS011;57172;52.034;5.090;2022-09-21T16:47:20;3.38;;;1.50;;
69894;SDS011;57172;52.034;5.090;2022-09-21T16:49:51;2.87;;;1.40;;
69894;SDS011;57172;52.034;5.090;2022-09-21T16:52:22;2.88;;;1.33;;
69894;SDS011;57172;52.034;5.090;2022-09-21T16:54:50;4.78;;;1.27;;
69894;SDS011;57172;52.034;5.090;2022-09-21T16:57:17;2.67;;;1.33;;
69894;SDS011;57172;52.034;5.090;2022-09-21T16:59:44;2.65;;;1.63;;
69894;SDS011;57172;52.034;5.090;2022-09-21T17:02:11;4.20;;;1.80;;
69894;SDS011;57172;52.034;5.090;2022-09-21T17:04:39;4.45;;;1.70;;
69894;SDS011;57172;52.034;5.090;2022-09-21T17:07:08;3.63;;;1.77;;
69894;SDS011;57172;52.034;5.090;2022-09-21T17:09:38;4.88;;;1.48;;
69894;SDS011;57172;52.034;5.090;2022-09-21T17:12:09;5.47;;;1.90;;
69894;SDS011;57172;52.034;5.090;2022-09-21T17:14:41;3.70;;;1.90;;
69894;SDS011;57172;52.034;5.090;2022-09-21T17:19:39;5.55;;;1.92;;
69894;SDS011;57172;52.034;5.090;2022-09-21T17:22:08;5.38;;;1.88;;
69894;SDS011;57172;52.034;5.090;2022-09-21T17:24:46;3.38;;;1.38;;
69894;SDS011;57172;52.034;5.090;2022-09-21T17:27:19;7.93;;;3.40;;
69894;SDS011;57172;52.034;5.090;2022-09-21T17:29:48;6.03;;;2.50;;
69894;SDS011;57172;52.034;5.090;2022-09-21T17:32:16;3.65;;;2.10;;
69894;SDS011;57172;52.034;5.090;2022-09-21T17:34:53;3.95;;;1.90;;
69894;SDS011;57172;52.034;5.090;2022-09-21T17:37:42;12.45;;;1.70;;
69894;SDS011;57172;52.034;5.090;2022-09-21T17:40:09;4.10;;;1.60;;
69894;SDS011;57172;52.034;5.090;2022-09-21T17:42:38;5.60;;;1.70;;
69894;SDS011;57172;52.034;5.090;2022-09-21T17:45:19;2.70;;;1.30;;
69894;SDS011;57172;52.034;5.090;2022-09-21T17:47:53;3.75;;;1.50;;
69894;SDS011;57172;52.034;5.090;2022-09-21T17:50:24;5.60;;;1.80;;
69894;SDS011;57172;52.034;5.090;2022-09-21T17:52:53;5.43;;;2.27;;
69894;SDS011;57172;52.034;5.090;2022-09-21T17:55:42;5.00;;;2.15;;
69894;SDS011;57172;52.034;5.090;2022-09-21T18:01:06;4.32;;;1.90;;
69894;SDS011;57172;52.034;5.090;2022-09-21T18:03:38;7.78;;;2.30;;
69894;SDS011;57172;52.034;5.090;2022-09-21T18:06:10;4.97;;;2.67;;
69894;SDS011;57172;52.034;5.090;2022-09-21T18:08:37;4.38;;;2.50;;
69894;SDS011;57172;52.034;5.090;2022-09-21T18:13:57;5.38;;;2.60;;
69894;SDS011;57172;52.034;5.090;2022-09-21T18:23:05;8.15;;;2.72;;
69894;SDS011;57172;52.034;5.090;2022-09-21T18:25:51;5.65;;;3.00;;
69894;SDS011;57172;52.034;5.090;2022-09-21T18:30:51;10.43;;;6.57;;
69894;SDS011;57172;52.034;5.090;2022-09-21T18:33:41;12.40;;;7.70;;
69894;SDS011;57172;52.034;5.090;2022-09-21T18:36:29;12.65;;;7.28;;
69894;SDS011;57172;52.034;5.090;2022-09-21T18:39:12;9.88;;;6.25;;
69894;SDS011;57172;52.034;5.090;2022-09-21T18:44:40;9.13;;;5.43;;
69894;SDS011;57172;52.034;5.090;2022-09-21T18:47:16;7.73;;;4.80;;
69894;SDS011;57172;52.034;5.090;2022-09-21T18:50:17;7.85;;;4.50;;
69894;SDS011;57172;52.034;5.090;2022-09-21T18:55:36;7.95;;;4.30;;
69894;SDS011;57172;52.034;5.090;2022-09-21T18:58:03;6.03;;;3.65;;
69894;SDS011;57172;52.034;5.090;2022-09-21T19:00:30;6.83;;;3.53;;
69894;SDS011;57172;52.034;5.090;2022-09-21T19:03:03;6.72;;;4.40;;
69894;SDS011;57172;52.034;5.090;2022-09-21T19:09:06;10.40;;;6.03;;
69894;SDS011;57172;52.034;5.090;2022-09-21T19:14:45;9.73;;;4.30;;
69894;SDS011;57172;52.034;5.090;2022-09-21T19:17:23;7.18;;;3.53;;